sensor_id;sensor_type;location;lat;lon;timestamp;temperature;humidity
32524;DHT22;18965;52.242;20.886;2023-08-08T00:00:11;17.30;74.10
32524;DHT22;18965;52.242;20.886;2023-08-08T00:02:37;17.30;74.00
32524;DHT22;18965;52.242;20.886;2023-08-08T00:05:03;17.30;73.90
32524;DHT22;18965;52.242;20.886;2023-08-08T00:07:29;17.20;73.70
32524;DHT22;18965;52.242;20.886;2023-08-08T00:09:56;17.20;73.50
32524;DHT22;18965;52.242;20.886;2023-08-08T00:12:23;17.20;73.50
32524;DHT22;18965;52.242;20.886;2023-08-08T00:14:49;17.20;73.60
32524;DHT22;18965;52.242;20.886;2023-08-08T00:17:14;17.10;73.30
32524;DHT22;18965;52.242;20.886;2023-08-08T00:19:40;17.10;73.20
32524;DHT22;18965;52.242;20.886;2023-08-08T00:22:09;17.00;73.10
32524;DHT22;18965;52.242;20.886;2023-08-08T00:24:38;17.00;73.10
32524;DHT22;18965;52.242;20.886;2023-08-08T00:27:04;17.00;73.10
32524;DHT22;18965;52.242;20.886;2023-08-08T00:29:31;16.90;73.00
32524;DHT22;18965;52.242;20.886;2023-08-08T00:31:57;16.90;72.90
32524;DHT22;18965;52.242;20.886;2023-08-08T00:34:22;16.90;72.90
32524;DHT22;18965;52.242;20.886;2023-08-08T00:36:48;16.90;72.80
32524;DHT22;18965;52.242;20.886;2023-08-08T00:39:17;16.90;72.80
32524;DHT22;18965;52.242;20.886;2023-08-08T00:41:42;16.80;72.80
32524;DHT22;18965;52.242;20.886;2023-08-08T00:44:08;16.80;72.70
32524;DHT22;18965;52.242;20.886;2023-08-08T00:46:34;16.80;72.50
32524;DHT22;18965;52.242;20.886;2023-08-08T00:49:00;16.80;72.50
32524;DHT22;18965;52.242;20.886;2023-08-08T00:51:26;16.80;72.40
32524;DHT22;18965;52.242;20.886;2023-08-08T00:53:51;16.80;72.30
32524;DHT22;18965;52.242;20.886;2023-08-08T00:56:17;16.70;72.20
32524;DHT22;18965;52.242;20.886;2023-08-08T00:58:43;16.70;72.10
32524;DHT22;18965;52.242;20.886;2023-08-08T01:01:13;16.70;72.10
32524;DHT22;18965;52.242;20.886;2023-08-08T01:03:39;16.70;72.10
32524;DHT22;18965;52.242;20.886;2023-08-08T01:06:19;16.60;72.10
32524;DHT22;18965;52.242;20.886;2023-08-08T01:10:05;16.60;72.20
32524;DHT22;18965;52.242;20.886;2023-08-08T01:12:11;16.60;72.40
32524;DHT22;18965;52.242;20.886;2023-08-08T01:14:40;16.50;72.40
32524;DHT22;18965;52.242;20.886;2023-08-08T01:17:07;16.50;72.40
32524;DHT22;18965;52.242;20.886;2023-08-08T01:19:32;16.50;72.50
32524;DHT22;18965;52.242;20.886;2023-08-08T01:22:05;16.40;72.50
32524;DHT22;18965;52.242;20.886;2023-08-08T01:24:32;16.40;72.60
32524;DHT22;18965;52.242;20.886;2023-08-08T01:27:03;16.40;72.70
32524;DHT22;18965;52.242;20.886;2023-08-08T01:29:29;16.30;72.70
32524;DHT22;18965;52.242;20.886;2023-08-08T01:31:55;16.30;72.70
32524;DHT22;18965;52.242;20.886;2023-08-08T01:34:21;16.30;72.80
32524;DHT22;18965;52.242;20.886;2023-08-08T01:37:03;16.20;72.70
32524;DHT22;18965;52.242;20.886;2023-08-08T01:39:32;16.20;72.80
32524;DHT22;18965;52.242;20.886;2023-08-08T01:41:59;16.10;72.80
32524;DHT22;18965;52.242;20.886;2023-08-08T01:44:26;16.10;72.90
32524;DHT22;18965;52.242;20.886;2023-08-08T01:46:53;16.10;72.90
32524;DHT22;18965;52.242;20.886;2023-08-08T01:49:19;16.10;73.00
32524;DHT22;18965;52.242;20.886;2023-08-08T01:51:45;16.00;73.10
32524;DHT22;18965;52.242;20.886;2023-08-08T01:54:11;16.00;73.10
32524;DHT22;18965;52.242;20.886;2023-08-08T01:56:37;16.00;73.20
32524;DHT22;18965;52.242;20.886;2023-08-08T01:59:05;16.00;73.20
32524;DHT22;18965;52.242;20.886;2023-08-08T02:01:31;16.00;73.10
32524;DHT22;18965;52.242;20.886;2023-08-08T02:03:56;16.00;73.20
32524;DHT22;18965;52.242;20.886;2023-08-08T02:06:22;15.90;73.10
32524;DHT22;18965;52.242;20.886;2023-08-08T02:08:48;15.90;73.00
32524;DHT22;18965;52.242;20.886;2023-08-08T02:11:13;15.90;73.80
32524;DHT22;18965;52.242;20.886;2023-08-08T02:13:39;15.90;73.10
32524;DHT22;18965;52.242;20.886;2023-08-08T02:16:05;15.90;73.20
32524;DHT22;18965;52.242;20.886;2023-08-08T02:18:30;15.80;73.00
32524;DHT22;18965;52.242;20.886;2023-08-08T02:20:56;15.80;73.10
32524;DHT22;18965;52.242;20.886;2023-08-08T02:23:22;15.80;73.10
32524;DHT22;18965;52.242;20.886;2023-08-08T02:25:48;15.70;73.20
32524;DHT22;18965;52.242;20.886;2023-08-08T02:28:13;15.70;73.10
32524;DHT22;18965;52.242;20.886;2023-08-08T02:30:39;15.70;73.10
32524;DHT22;18965;52.242;20.886;2023-08-08T02:33:05;15.70;73.20
32524;DHT22;18965;52.242;20.886;2023-08-08T02:35:31;15.70;73.30
32524;DHT22;18965;52.242;20.886;2023-08-08T02:37:57;15.70;73.30
32524;DHT22;18965;52.242;20.886;2023-08-08T02:40:22;15.60;73.30
32524;DHT22;18965;52.242;20.886;2023-08-08T02:42:49;15.60;73.30
32524;DHT22;18965;52.242;20.886;2023-08-08T02:45:15;15.50;73.30
32524;DHT22;18965;52.242;20.886;2023-08-08T02:47:41;15.50;73.30
32524;DHT22;18965;52.242;20.886;2023-08-08T02:50:07;15.50;73.30
32524;DHT22;18965;52.242;20.886;2023-08-08T02:52:32;15.50;73.20
32524;DHT22;18965;52.242;20.886;2023-08-08T02:54:58;15.50;73.10
32524;DHT22;18965;52.242;20.886;2023-08-08T02:57:24;15.50;73.10
32524;DHT22;18965;52.242;20.886;2023-08-08T02:59:49;15.40;73.00
32524;DHT22;18965;52.242;20.886;2023-08-08T03:02:15;15.40;73.10
32524;DHT22;18965;52.242;20.886;2023-08-08T03:04:41;15.40;73.00
32524;DHT22;18965;52.242;20.886;2023-08-08T03:07:06;15.40;73.00
32524;DHT22;18965;52.242;20.886;2023-08-08T03:09:32;15.30;72.90
32524;DHT22;18965;52.242;20.886;2023-08-08T03:11:58;15.30;73.00
32524;DHT22;18965;52.242;20.886;2023-08-08T03:14:23;15.30;73.00
32524;DHT22;18965;52.242;20.886;2023-08-08T03:16:49;15.30;73.00
32524;DHT22;18965;52.242;20.886;2023-08-08T03:19:15;15.30;73.20
32524;DHT22;18965;52.242;20.886;2023-08-08T03:21:40;15.30;73.20
32524;DHT22;18965;52.242;20.886;2023-08-08T03:24:06;15.20;73.10
32524;DHT22;18965;52.242;20.886;2023-08-08T03:26:32;15.20;73.20
32524;DHT22;18965;52.242;20.886;2023-08-08T03:28:58;15.20;73.20
32524;DHT22;18965;52.242;20.886;2023-08-08T03:31:23;15.20;73.30
32524;DHT22;18965;52.242;20.886;2023-08-08T03:33:51;15.20;73.30
32524;DHT22;18965;52.242;20.886;2023-08-08T03:36:17;15.20;73.30
32524;DHT22;18965;52.242;20.886;2023-08-08T03:38:43;15.20;73.50
32524;DHT22;18965;52.242;20.886;2023-08-08T03:41:12;15.20;73.50
32524;DHT22;18965;52.242;20.886;2023-08-08T03:43:39;15.20;73.40
32524;DHT22;18965;52.242;20.886;2023-08-08T03:46:06;15.20;73.30
32524;DHT22;18965;52.242;20.886;2023-08-08T03:48:32;15.20;73.30
32524;DHT22;18965;52.242;20.886;2023-08-08T03:50:58;15.20;73.30
32524;DHT22;18965;52.242;20.886;2023-08-08T03:53:23;15.20;73.30
32524;DHT22;18965;52.242;20.886;2023-08-08T03:55:49;15.20;73.40
32524;DHT22;18965;52.242;20.886;2023-08-08T03:58:15;15.20;73.30
32524;DHT22;18965;52.242;20.886;2023-08-08T04:00:40;15.20;73.40
32524;DHT22;18965;52.242;20.886;2023-08-08T04:03:14;15.30;73.50
32524;DHT22;18965;52.242;20.886;2023-08-08T04:05:46;15.30;73.60
32524;DHT22;18965;52.242;20.886;2023-08-08T04:08:15;15.30;73.50
32524;DHT22;18965;52.242;20.886;2023-08-08T04:10:42;15.40;73.40
32524;DHT22;18965;52.242;20.886;2023-08-08T04:13:09;15.40;73.40
32524;DHT22;18965;52.242;20.886;2023-08-08T04:15:34;15.40;73.20
32524;DHT22;18965;52.242;20.886;2023-08-08T04:18:03;15.50;73.10
32524;DHT22;18965;52.242;20.886;2023-08-08T04:20:32;15.50;73.00
32524;DHT22;18965;52.242;20.886;2023-08-08T04:22:58;15.60;73.10
32524;DHT22;18965;52.242;20.886;2023-08-08T04:25:24;15.70;73.10
32524;DHT22;18965;52.242;20.886;2023-08-08T04:27:49;15.70;73.00
32524;DHT22;18965;52.242;20.886;2023-08-08T04:30:15;15.80;72.90
32524;DHT22;18965;52.242;20.886;2023-08-08T04:32:41;15.80;72.80
32524;DHT22;18965;52.242;20.886;2023-08-08T04:35:06;15.90;72.70
32524;DHT22;18965;52.242;20.886;2023-08-08T04:37:35;15.90;72.70
32524;DHT22;18965;52.242;20.886;2023-08-08T04:40:01;16.00;72.70
32524;DHT22;18965;52.242;20.886;2023-08-08T04:42:27;16.00;72.50
32524;DHT22;18965;52.242;20.886;2023-08-08T04:44:53;16.10;72.40
32524;DHT22;18965;52.242;20.886;2023-08-08T04:47:18;16.10;72.20
32524;DHT22;18965;52.242;20.886;2023-08-08T04:49:44;16.10;72.00
32524;DHT22;18965;52.242;20.886;2023-08-08T04:52:10;16.20;71.80
32524;DHT22;18965;52.242;20.886;2023-08-08T04:54:36;16.30;71.70
32524;DHT22;18965;52.242;20.886;2023-08-08T04:57:01;16.40;71.60
32524;DHT22;18965;52.242;20.886;2023-08-08T04:59:30;16.50;71.60
32524;DHT22;18965;52.242;20.886;2023-08-08T05:01:56;16.70;71.20
32524;DHT22;18965;52.242;20.886;2023-08-08T05:04:21;16.80;70.80
32524;DHT22;18965;52.242;20.886;2023-08-08T05:06:47;16.90;70.50
32524;DHT22;18965;52.242;20.886;2023-08-08T05:09:13;16.90;70.30
32524;DHT22;18965;52.242;20.886;2023-08-08T05:11:38;17.00;70.10
32524;DHT22;18965;52.242;20.886;2023-08-08T05:14:04;17.00;70.10
32524;DHT22;18965;52.242;20.886;2023-08-08T05:16:30;17.10;70.00
32524;DHT22;18965;52.242;20.886;2023-08-08T05:18:55;17.20;69.70
32524;DHT22;18965;52.242;20.886;2023-08-08T05:21:22;17.30;69.30
32524;DHT22;18965;52.242;20.886;2023-08-08T05:23:47;17.40;69.20
32524;DHT22;18965;52.242;20.886;2023-08-08T05:26:14;17.60;69.10
32524;DHT22;18965;52.242;20.886;2023-08-08T05:28:40;17.70;68.90
32524;DHT22;18965;52.242;20.886;2023-08-08T05:31:06;17.80;68.40
32524;DHT22;18965;52.242;20.886;2023-08-08T05:33:32;17.90;67.70
32524;DHT22;18965;52.242;20.886;2023-08-08T05:35:58;18.00;67.70
32524;DHT22;18965;52.242;20.886;2023-08-08T05:38:24;18.10;67.40
32524;DHT22;18965;52.242;20.886;2023-08-08T05:40:50;18.20;67.10
32524;DHT22;18965;52.242;20.886;2023-08-08T05:43:16;18.20;66.80
32524;DHT22;18965;52.242;20.886;2023-08-08T05:45:46;18.30;66.70
32524;DHT22;18965;52.242;20.886;2023-08-08T05:48:13;18.40;66.40
32524;DHT22;18965;52.242;20.886;2023-08-08T05:50:39;18.40;66.10
32524;DHT22;18965;52.242;20.886;2023-08-08T05:53:05;18.50;65.90
32524;DHT22;18965;52.242;20.886;2023-08-08T05:55:31;18.60;65.80
32524;DHT22;18965;52.242;20.886;2023-08-08T05:57:57;18.50;65.60
32524;DHT22;18965;52.242;20.886;2023-08-08T06:00:22;18.50;65.30
32524;DHT22;18965;52.242;20.886;2023-08-08T06:02:49;18.60;65.20
32524;DHT22;18965;52.242;20.886;2023-08-08T06:05:16;18.50;65.20
32524;DHT22;18965;52.242;20.886;2023-08-08T06:07:43;18.60;65.20
32524;DHT22;18965;52.242;20.886;2023-08-08T06:10:09;18.70;65.00
32524;DHT22;18965;52.242;20.886;2023-08-08T06:12:38;18.80;64.80
32524;DHT22;18965;52.242;20.886;2023-08-08T06:15:05;19.00;64.70
32524;DHT22;18965;52.242;20.886;2023-08-08T06:17:31;19.10;64.10
32524;DHT22;18965;52.242;20.886;2023-08-08T06:19:57;19.10;63.50
32524;DHT22;18965;52.242;20.886;2023-08-08T06:22:23;19.20;63.50
32524;DHT22;18965;52.242;20.886;2023-08-08T06:24:49;19.20;63.30
32524;DHT22;18965;52.242;20.886;2023-08-08T06:27:15;19.20;62.90
32524;DHT22;18965;52.242;20.886;2023-08-08T06:29:41;19.30;63.00
32524;DHT22;18965;52.242;20.886;2023-08-08T06:32:07;19.40;62.70
32524;DHT22;18965;52.242;20.886;2023-08-08T06:34:33;19.40;62.50
32524;DHT22;18965;52.242;20.886;2023-08-08T06:36:58;19.50;62.30
32524;DHT22;18965;52.242;20.886;2023-08-08T06:39:24;19.60;62.10
32524;DHT22;18965;52.242;20.886;2023-08-08T06:41:50;19.60;61.70
32524;DHT22;18965;52.242;20.886;2023-08-08T06:44:16;19.70;61.60
32524;DHT22;18965;52.242;20.886;2023-08-08T06:46:48;19.80;61.40
32524;DHT22;18965;52.242;20.886;2023-08-08T06:49:14;19.90;60.80
32524;DHT22;18965;52.242;20.886;2023-08-08T06:51:40;20.00;61.00
32524;DHT22;18965;52.242;20.886;2023-08-08T06:54:05;20.10;60.60
32524;DHT22;18965;52.242;20.886;2023-08-08T06:56:33;20.30;60.10
32524;DHT22;18965;52.242;20.886;2023-08-08T06:58:59;20.40;59.70
32524;DHT22;18965;52.242;20.886;2023-08-08T07:01:24;20.50;59.30
32524;DHT22;18965;52.242;20.886;2023-08-08T07:03:50;20.60;59.10
32524;DHT22;18965;52.242;20.886;2023-08-08T07:06:17;20.70;58.90
32524;DHT22;18965;52.242;20.886;2023-08-08T07:08:43;20.70;58.90
32524;DHT22;18965;52.242;20.886;2023-08-08T07:11:09;20.90;59.00
32524;DHT22;18965;52.242;20.886;2023-08-08T07:13:36;21.00;58.60
32524;DHT22;18965;52.242;20.886;2023-08-08T07:16:02;21.10;58.20
32524;DHT22;18965;52.242;20.886;2023-08-08T07:18:27;21.30;58.10
32524;DHT22;18965;52.242;20.886;2023-08-08T07:20:53;21.40;57.60
32524;DHT22;18965;52.242;20.886;2023-08-08T07:23:19;21.50;57.10
32524;DHT22;18965;52.242;20.886;2023-08-08T07:25:46;21.70;56.80
32524;DHT22;18965;52.242;20.886;2023-08-08T07:28:12;21.80;56.30
32524;DHT22;18965;52.242;20.886;2023-08-08T07:30:40;21.80;55.60
32524;DHT22;18965;52.242;20.886;2023-08-08T07:33:06;21.90;55.30
32524;DHT22;18965;52.242;20.886;2023-08-08T07:35:34;21.80;55.20
32524;DHT22;18965;52.242;20.886;2023-08-08T07:38:00;21.70;55.20
32524;DHT22;18965;52.242;20.886;2023-08-08T07:40:26;21.70;55.20
32524;DHT22;18965;52.242;20.886;2023-08-08T07:42:52;21.70;55.00
32524;DHT22;18965;52.242;20.886;2023-08-08T07:45:18;21.70;55.30
32524;DHT22;18965;52.242;20.886;2023-08-08T07:47:44;21.70;55.30
32524;DHT22;18965;52.242;20.886;2023-08-08T07:50:12;21.70;54.80
32524;DHT22;18965;52.242;20.886;2023-08-08T07:52:40;21.70;54.60
32524;DHT22;18965;52.242;20.886;2023-08-08T07:55:06;21.70;54.60
32524;DHT22;18965;52.242;20.886;2023-08-08T07:57:35;21.70;54.40
32524;DHT22;18965;52.242;20.886;2023-08-08T08:00:04;21.70;54.30
32524;DHT22;18965;52.242;20.886;2023-08-08T08:02:37;21.70;54.40
32524;DHT22;18965;52.242;20.886;2023-08-08T08:05:06;21.70;54.30
32524;DHT22;18965;52.242;20.886;2023-08-08T08:07:36;21.80;54.10
32524;DHT22;18965;52.242;20.886;2023-08-08T08:10:04;21.80;54.00
32524;DHT22;18965;52.242;20.886;2023-08-08T08:12:31;21.70;54.00
32524;DHT22;18965;52.242;20.886;2023-08-08T08:14:57;21.70;54.00
32524;DHT22;18965;52.242;20.886;2023-08-08T08:17:23;21.60;53.90
32524;DHT22;18965;52.242;20.886;2023-08-08T08:19:52;21.50;54.10
32524;DHT22;18965;52.242;20.886;2023-08-08T08:22:18;21.50;54.20
32524;DHT22;18965;52.242;20.886;2023-08-08T08:24:44;21.40;54.00
32524;DHT22;18965;52.242;20.886;2023-08-08T08:27:11;21.30;54.00
32524;DHT22;18965;52.242;20.886;2023-08-08T08:29:37;21.30;54.10
32524;DHT22;18965;52.242;20.886;2023-08-08T08:32:05;21.30;54.10
32524;DHT22;18965;52.242;20.886;2023-08-08T08:34:33;21.30;54.10
32524;DHT22;18965;52.242;20.886;2023-08-08T08:36:59;21.30;54.30
32524;DHT22;18965;52.242;20.886;2023-08-08T08:39:25;21.40;54.10
32524;DHT22;18965;52.242;20.886;2023-08-08T08:41:59;21.40;54.00
32524;DHT22;18965;52.242;20.886;2023-08-08T08:44:34;21.40;54.00
32524;DHT22;18965;52.242;20.886;2023-08-08T08:47:02;21.50;54.40
32524;DHT22;18965;52.242;20.886;2023-08-08T08:49:31;21.50;54.40
32524;DHT22;18965;52.242;20.886;2023-08-08T08:52:00;21.60;54.10
32524;DHT22;18965;52.242;20.886;2023-08-08T08:54:27;21.60;53.80
32524;DHT22;18965;52.242;20.886;2023-08-08T08:56:55;21.60;53.40
32524;DHT22;18965;52.242;20.886;2023-08-08T08:59:21;21.60;53.30
32524;DHT22;18965;52.242;20.886;2023-08-08T09:01:48;21.60;53.50
32524;DHT22;18965;52.242;20.886;2023-08-08T09:04:16;21.70;53.60
32524;DHT22;18965;52.242;20.886;2023-08-08T09:06:44;21.80;53.50
32524;DHT22;18965;52.242;20.886;2023-08-08T09:09:11;21.70;53.20
32524;DHT22;18965;52.242;20.886;2023-08-08T09:11:38;21.80;53.20
32524;DHT22;18965;52.242;20.886;2023-08-08T09:14:18;21.80;52.90
32524;DHT22;18965;52.242;20.886;2023-08-08T09:16:45;21.80;52.70
32524;DHT22;18965;52.242;20.886;2023-08-08T09:19:12;21.80;53.00
32524;DHT22;18965;52.242;20.886;2023-08-08T09:21:38;21.80;52.30
32524;DHT22;18965;52.242;20.886;2023-08-08T09:24:04;21.80;52.40
32524;DHT22;18965;52.242;20.886;2023-08-08T09:26:33;22.00;52.30
32524;DHT22;18965;52.242;20.886;2023-08-08T09:29:00;22.10;52.10
32524;DHT22;18965;52.242;20.886;2023-08-08T09:31:26;22.30;51.10
32524;DHT22;18965;52.242;20.886;2023-08-08T09:33:55;22.30;51.50
32524;DHT22;18965;52.242;20.886;2023-08-08T09:36:22;22.40;51.00
32524;DHT22;18965;52.242;20.886;2023-08-08T09:38:49;22.40;50.80
32524;DHT22;18965;52.242;20.886;2023-08-08T09:41:15;22.30;50.30
32524;DHT22;18965;52.242;20.886;2023-08-08T09:43:44;22.30;49.90
32524;DHT22;18965;52.242;20.886;2023-08-08T09:46:10;22.30;49.80
32524;DHT22;18965;52.242;20.886;2023-08-08T09:48:38;22.20;49.80
32524;DHT22;18965;52.242;20.886;2023-08-08T09:51:04;22.10;49.60
32524;DHT22;18965;52.242;20.886;2023-08-08T09:53:32;22.00;49.60
32524;DHT22;18965;52.242;20.886;2023-08-08T09:55:58;21.90;50.00
32524;DHT22;18965;52.242;20.886;2023-08-08T09:58:25;21.80;50.00
32524;DHT22;18965;52.242;20.886;2023-08-08T10:00:51;21.80;49.80
32524;DHT22;18965;52.242;20.886;2023-08-08T10:03:18;21.80;50.10
32524;DHT22;18965;52.242;20.886;2023-08-08T10:05:44;21.80;50.00
32524;DHT22;18965;52.242;20.886;2023-08-08T10:08:10;21.80;50.10
32524;DHT22;18965;52.242;20.886;2023-08-08T10:10:37;21.70;50.30
32524;DHT22;18965;52.242;20.886;2023-08-08T10:13:05;21.80;50.30
32524;DHT22;18965;52.242;20.886;2023-08-08T10:15:37;21.80;50.30
32524;DHT22;18965;52.242;20.886;2023-08-08T10:18:03;21.80;50.00
32524;DHT22;18965;52.242;20.886;2023-08-08T10:20:31;21.80;50.30
32524;DHT22;18965;52.242;20.886;2023-08-08T10:22:59;21.90;50.40
32524;DHT22;18965;52.242;20.886;2023-08-08T10:25:28;22.10;50.30
32524;DHT22;18965;52.242;20.886;2023-08-08T10:30:29;22.30;49.60
32524;DHT22;18965;52.242;20.886;2023-08-08T10:32:56;22.30;49.30
32524;DHT22;18965;52.242;20.886;2023-08-08T10:35:23;22.40;49.40
32524;DHT22;18965;52.242;20.886;2023-08-08T10:37:54;22.30;49.40
32524;DHT22;18965;52.242;20.886;2023-08-08T10:40:20;22.30;49.10
32524;DHT22;18965;52.242;20.886;2023-08-08T10:42:49;22.30;48.50
32524;DHT22;18965;52.242;20.886;2023-08-08T10:45:20;22.10;47.80
32524;DHT22;18965;52.242;20.886;2023-08-08T10:47:45;22.00;47.60
32524;DHT22;18965;52.242;20.886;2023-08-08T10:50:23;21.90;48.10
32524;DHT22;18965;52.242;20.886;2023-08-08T10:55:26;21.90;48.90
32524;DHT22;18965;52.242;20.886;2023-08-08T10:58:12;21.90;49.10
32524;DHT22;18965;52.242;20.886;2023-08-08T11:00:39;22.00;49.40
32524;DHT22;18965;52.242;20.886;2023-08-08T11:03:08;22.20;49.60
32524;DHT22;18965;52.242;20.886;2023-08-08T11:05:37;22.30;48.70
32524;DHT22;18965;52.242;20.886;2023-08-08T11:08:06;22.50;48.50
32524;DHT22;18965;52.242;20.886;2023-08-08T11:10:55;22.50;47.70
32524;DHT22;18965;52.242;20.886;2023-08-08T11:13:20;22.70;47.30
32524;DHT22;18965;52.242;20.886;2023-08-08T11:15:46;22.80;47.60
32524;DHT22;18965;52.242;20.886;2023-08-08T11:18:13;22.90;47.00
32524;DHT22;18965;52.242;20.886;2023-08-08T11:20:39;22.90;46.50
32524;DHT22;18965;52.242;20.886;2023-08-08T11:23:05;23.00;46.10
32524;DHT22;18965;52.242;20.886;2023-08-08T11:25:35;23.00;46.20
32524;DHT22;18965;52.242;20.886;2023-08-08T11:28:02;23.00;46.10
32524;DHT22;18965;52.242;20.886;2023-08-08T11:30:30;23.00;46.10
32524;DHT22;18965;52.242;20.886;2023-08-08T11:32:55;22.90;45.30
32524;DHT22;18965;52.242;20.886;2023-08-08T11:35:23;22.90;45.40
32524;DHT22;18965;52.242;20.886;2023-08-08T11:37:51;22.90;45.50
32524;DHT22;18965;52.242;20.886;2023-08-08T11:40:18;23.00;45.50
32524;DHT22;18965;52.242;20.886;2023-08-08T11:42:45;23.10;45.70
32524;DHT22;18965;52.242;20.886;2023-08-08T11:45:12;23.20;45.80
32524;DHT22;18965;52.242;20.886;2023-08-08T11:47:39;23.20;45.40
32524;DHT22;18965;52.242;20.886;2023-08-08T11:50:07;23.20;45.10
32524;DHT22;18965;52.242;20.886;2023-08-08T11:52:40;23.20;44.70
32524;DHT22;18965;52.242;20.886;2023-08-08T11:55:08;23.20;44.70
32524;DHT22;18965;52.242;20.886;2023-08-08T11:57:36;23.20;45.00
32524;DHT22;18965;52.242;20.886;2023-08-08T12:00:06;23.20;44.40
32524;DHT22;18965;52.242;20.886;2023-08-08T12:02:33;23.20;44.20
32524;DHT22;18965;52.242;20.886;2023-08-08T12:05:10;23.20;44.50
32524;DHT22;18965;52.242;20.886;2023-08-08T12:07:40;23.30;44.50
32524;DHT22;18965;52.242;20.886;2023-08-08T12:10:16;23.30;44.50
32524;DHT22;18965;52.242;20.886;2023-08-08T12:12:43;23.30;43.80
32524;DHT22;18965;52.242;20.886;2023-08-08T12:15:12;23.30;43.30
32524;DHT22;18965;52.242;20.886;2023-08-08T12:17:39;23.30;43.60
32524;DHT22;18965;52.242;20.886;2023-08-08T12:20:06;23.30;43.60
32524;DHT22;18965;52.242;20.886;2023-08-08T12:22:33;23.30;43.10
32524;DHT22;18965;52.242;20.886;2023-08-08T12:24:59;23.20;42.80
32524;DHT22;18965;52.242;20.886;2023-08-08T12:27:25;23.20;43.00
32524;DHT22;18965;52.242;20.886;2023-08-08T12:29:51;23.10;43.40
32524;DHT22;18965;52.242;20.886;2023-08-08T12:32:19;23.00;43.40
32524;DHT22;18965;52.242;20.886;2023-08-08T12:34:45;23.10;43.50
32524;DHT22;18965;52.242;20.886;2023-08-08T12:37:14;23.10;43.50
32524;DHT22;18965;52.242;20.886;2023-08-08T12:39:40;23.20;43.50
32524;DHT22;18965;52.242;20.886;2023-08-08T12:42:09;23.20;43.30
32524;DHT22;18965;52.242;20.886;2023-08-08T12:44:35;23.20;43.40
32524;DHT22;18965;52.242;20.886;2023-08-08T12:47:00;23.20;43.60
32524;DHT22;18965;52.242;20.886;2023-08-08T12:49:26;23.10;44.00
32524;DHT22;18965;52.242;20.886;2023-08-08T12:51:52;23.10;44.00
32524;DHT22;18965;52.242;20.886;2023-08-08T12:54:21;23.10;43.40
32524;DHT22;18965;52.242;20.886;2023-08-08T12:56:47;23.10;43.20
32524;DHT22;18965;52.242;20.886;2023-08-08T12:59:12;23.20;43.00
32524;DHT22;18965;52.242;20.886;2023-08-08T13:01:39;23.20;43.20
32524;DHT22;18965;52.242;20.886;2023-08-08T13:04:07;23.30;43.20
32524;DHT22;18965;52.242;20.886;2023-08-08T13:06:33;23.30;43.00
32524;DHT22;18965;52.242;20.886;2023-08-08T13:08:59;23.40;42.80
32524;DHT22;18965;52.242;20.886;2023-08-08T13:11:26;23.50;42.50
32524;DHT22;18965;52.242;20.886;2023-08-08T13:13:52;23.50;42.50
32524;DHT22;18965;52.242;20.886;2023-08-08T13:16:20;23.50;42.50
32524;DHT22;18965;52.242;20.886;2023-08-08T13:18:45;23.40;42.50
32524;DHT22;18965;52.242;20.886;2023-08-08T13:21:11;23.40;42.80
32524;DHT22;18965;52.242;20.886;2023-08-08T13:23:38;23.40;42.70
32524;DHT22;18965;52.242;20.886;2023-08-08T13:26:03;23.40;42.50
32524;DHT22;18965;52.242;20.886;2023-08-08T13:28:29;23.40;42.50
32524;DHT22;18965;52.242;20.886;2023-08-08T13:30:55;23.40;42.30
32524;DHT22;18965;52.242;20.886;2023-08-08T13:33:21;23.40;42.70
32524;DHT22;18965;52.242;20.886;2023-08-08T13:35:47;23.40;43.00
32524;DHT22;18965;52.242;20.886;2023-08-08T13:38:13;23.40;42.80
32524;DHT22;18965;52.242;20.886;2023-08-08T13:40:46;23.40;42.70
32524;DHT22;18965;52.242;20.886;2023-08-08T13:43:12;23.30;43.10
32524;DHT22;18965;52.242;20.886;2023-08-08T13:45:37;23.30;43.20
32524;DHT22;18965;52.242;20.886;2023-08-08T13:48:03;23.20;43.40
32524;DHT22;18965;52.242;20.886;2023-08-08T13:50:29;23.20;44.10
32524;DHT22;18965;52.242;20.886;2023-08-08T13:52:55;23.10;44.40
32524;DHT22;18965;52.242;20.886;2023-08-08T13:55:21;23.10;44.90
32524;DHT22;18965;52.242;20.886;2023-08-08T13:57:49;23.00;44.80
32524;DHT22;18965;52.242;20.886;2023-08-08T14:00:15;23.00;45.20
32524;DHT22;18965;52.242;20.886;2023-08-08T14:02:42;23.00;45.60
32524;DHT22;18965;52.242;20.886;2023-08-08T14:05:08;23.00;45.60
32524;DHT22;18965;52.242;20.886;2023-08-08T14:07:34;23.00;45.60
32524;DHT22;18965;52.242;20.886;2023-08-08T14:10:01;23.00;45.20
32524;DHT22;18965;52.242;20.886;2023-08-08T14:12:28;23.00;45.60
32524;DHT22;18965;52.242;20.886;2023-08-08T14:14:56;22.90;45.60
32524;DHT22;18965;52.242;20.886;2023-08-08T14:17:22;22.90;45.60
32524;DHT22;18965;52.242;20.886;2023-08-08T14:19:51;22.80;45.40
32524;DHT22;18965;52.242;20.886;2023-08-08T14:22:19;22.80;45.60
32524;DHT22;18965;52.242;20.886;2023-08-08T14:24:45;22.80;45.60
32524;DHT22;18965;52.242;20.886;2023-08-08T14:27:11;22.70;45.70
32524;DHT22;18965;52.242;20.886;2023-08-08T14:29:37;22.80;46.00
32524;DHT22;18965;52.242;20.886;2023-08-08T14:32:03;22.80;46.40
32524;DHT22;18965;52.242;20.886;2023-08-08T14:34:33;22.90;46.10
32524;DHT22;18965;52.242;20.886;2023-08-08T14:37:00;23.00;46.10
32524;DHT22;18965;52.242;20.886;2023-08-08T14:39:27;23.10;45.90
32524;DHT22;18965;52.242;20.886;2023-08-08T14:41:53;23.20;45.30
32524;DHT22;18965;52.242;20.886;2023-08-08T14:44:19;23.20;45.30
32524;DHT22;18965;52.242;20.886;2023-08-08T14:46:44;23.20;45.00
32524;DHT22;18965;52.242;20.886;2023-08-08T14:49:10;23.20;45.10
32524;DHT22;18965;52.242;20.886;2023-08-08T14:51:36;23.20;44.70
32524;DHT22;18965;52.242;20.886;2023-08-08T14:54:02;23.20;45.30
32524;DHT22;18965;52.242;20.886;2023-08-08T14:56:28;23.10;44.20
32524;DHT22;18965;52.242;20.886;2023-08-08T14:58:54;23.00;43.80
32524;DHT22;18965;52.242;20.886;2023-08-08T15:01:20;22.90;43.90
32524;DHT22;18965;52.242;20.886;2023-08-08T15:03:46;22.80;43.90
32524;DHT22;18965;52.242;20.886;2023-08-08T15:06:12;22.80;44.10
32524;DHT22;18965;52.242;20.886;2023-08-08T15:08:37;22.70;44.20
32524;DHT22;18965;52.242;20.886;2023-08-08T15:11:03;22.60;44.20
32524;DHT22;18965;52.242;20.886;2023-08-08T15:13:32;22.60;44.20
32524;DHT22;18965;52.242;20.886;2023-08-08T15:15:57;22.60;44.40
32524;DHT22;18965;52.242;20.886;2023-08-08T15:18:23;22.60;44.80